createdAt,value
2023-04-09T00:04:17.084Z,127.10
2023-04-09T00:09:15.328Z,147.40
2023-04-09T00:14:16.601Z,127.40
2023-04-09T00:19:14.865Z,100.50
2023-04-09T00:24:15.013Z,95.80
2023-04-09T00:29:13.156Z,86.10
2023-04-09T00:34:12.299Z,87.50
2023-04-09T00:39:12.473Z,83.10
2023-04-09T00:44:10.626Z,65.70
2023-04-09T00:49:09.774Z,67.00
2023-04-09T00:54:09.931Z,64.30
2023-04-09T00:59:09.083Z,60.20
2023-04-09T01:04:09.225Z,53.90
2023-04-09T01:09:08.400Z,52.30
2023-04-09T01:14:05.548Z,49.10
2023-04-09T01:19:08.821Z,47.20
2023-04-09T01:24:02.937Z,44.10
2023-04-09T01:29:04.097Z,41.60
2023-04-09T01:34:03.237Z,37.10
2023-04-09T01:39:01.574Z,36.20
2023-04-09T01:44:01.730Z,35.60
2023-04-09T01:48:58.971Z,32.70
2023-04-09T01:53:59.244Z,30.80
2023-04-09T01:59:00.540Z,29.90
2023-04-09T02:03:58.915Z,28.50
2023-04-09T02:08:58.040Z,27.40
2023-04-09T02:13:57.311Z,25.80
2023-04-09T02:18:55.578Z,27.00
2023-04-09T02:23:54.861Z,24.40
2023-04-09T02:28:56.145Z,23.40
2023-04-09T02:33:53.448Z,22.60
2023-04-09T02:38:52.906Z,24.10
2023-04-09T02:43:52.093Z,21.30
2023-04-09T02:48:52.404Z,20.00
2023-04-09T02:53:50.441Z,22.20
2023-04-09T02:58:50.886Z,18.60
2023-04-09T03:03:49.971Z,19.30
2023-04-09T03:08:50.327Z,19.50
2023-04-09T03:13:46.380Z,19.20
2023-04-09T03:18:46.694Z,18.80
2023-04-09T03:23:45.949Z,19.10
2023-04-09T03:28:45.234Z,17.10
2023-04-09T03:33:45.500Z,16.80
2023-04-09T03:38:43.773Z,17.30
2023-04-09T03:43:44.065Z,16.40
2023-04-09T03:48:42.352Z,15.60
2023-04-09T03:53:41.655Z,16.70
2023-04-09T03:58:41.983Z,16.50
2023-04-09T04:03:42.419Z,15.70
2023-04-09T04:08:41.453Z,15.10
2023-04-09T04:13:39.730Z,14.70
2023-04-09T04:18:40.045Z,15.00
2023-04-09T04:23:37.276Z,15.10
2023-04-09T04:28:37.544Z,14.60
2023-04-09T04:33:35.791Z,15.70
2023-04-09T04:38:35.082Z,13.40
2023-04-09T04:43:36.341Z,15.10
2023-04-09T04:48:33.593Z,15.10
2023-04-09T04:53:32.863Z,14.30
2023-04-09T04:58:32.130Z,13.90
2023-04-09T05:03:30.503Z,14.30
2023-04-09T05:08:30.779Z,13.60
2023-04-09T05:13:30.083Z,14.60
2023-04-09T05:18:30.394Z,14.00
2023-04-09T05:23:28.702Z,14.40
2023-04-09T05:28:28.014Z,13.50
2023-04-09T05:33:28.359Z,14.10
2023-04-09T05:38:28.631Z,12.40
2023-04-09T05:43:27.908Z,12.70
2023-04-09T05:48:26.220Z,12.70
2023-04-09T05:53:24.514Z,13.30
2023-04-09T05:58:23.790Z,12.50
2023-04-09T06:03:23.257Z,12.20
2023-04-09T06:08:22.278Z,12.90
2023-04-09T06:13:22.572Z,12.50
2023-04-09T06:18:20.857Z,26.10
2023-04-09T06:23:20.126Z,19.40
2023-04-09T06:28:19.454Z,18.40
2023-04-09T06:33:18.808Z,16.60
2023-04-09T06:38:17.859Z,15.60
2023-04-09T06:43:18.140Z,14.20
2023-04-09T06:48:16.392Z,13.50
2023-04-09T06:53:16.720Z,12.80
2023-04-09T06:58:14.976Z,13.60
2023-04-09T07:03:16.471Z,12.20
2023-04-09T07:08:13.429Z,12.10
2023-04-09T07:13:14.687Z,16.40
2023-04-09T07:18:11.957Z,10.60
2023-04-09T07:23:12.256Z,10.70
2023-04-09T07:28:11.569Z,10.80
2023-04-09T07:33:09.887Z,9.90
2023-04-09T07:38:09.143Z,9.00
2023-04-09T07:43:09.402Z,9.70
2023-04-09T07:48:07.645Z,9.70
2023-04-09T07:53:06.966Z,9.60
2023-04-09T07:58:06.191Z,9.30
2023-04-09T08:03:05.501Z,9.60
2023-04-09T08:08:05.613Z,10.00
2023-04-09T08:13:03.734Z,10.20
2023-04-09T08:18:03.160Z,9.10
2023-04-09T08:23:03.290Z,9.50
2023-04-09T08:28:02.633Z,9.20
2023-04-09T08:33:01.916Z,8.70
2023-04-09T08:37:59.005Z,9.80
2023-04-09T08:42:59.174Z,10.40
2023-04-09T08:47:59.367Z,10.40
2023-04-09T08:52:57.559Z,8.60
2023-04-09T08:57:57.855Z,18.10
2023-04-09T09:02:57.337Z,12.20
2023-04-09T09:07:55.466Z,13.20
2023-04-09T09:12:54.788Z,12.70
2023-04-09T09:17:54.165Z,12.20
2023-04-09T09:22:55.120Z,11.20
2023-04-09T09:27:52.551Z,10.60
2023-04-09T09:32:51.897Z,9.80
2023-04-09T09:37:51.034Z,9.20
2023-04-09T09:42:51.183Z,10.00
2023-04-09T09:47:50.559Z,10.10
2023-04-09T09:52:48.653Z,10.40
2023-04-09T09:57:47.977Z,10.20
2023-04-09T10:02:49.393Z,9.70
2023-04-09T10:07:46.550Z,9.90
2023-04-09T10:12:45.891Z,10.20
2023-04-09T10:17:45.075Z,9.30
2023-04-09T10:22:44.270Z,9.20
2023-04-09T10:27:43.502Z,10.40
2023-04-09T10:32:43.649Z,9.60
2023-04-09T10:37:41.792Z,10.30
2023-04-09T10:42:42.043Z,10.90
2023-04-09T10:47:41.218Z,11.60
2023-04-09T10:52:39.347Z,10.70
2023-04-09T10:57:38.523Z,11.00
2023-04-09T11:02:38.960Z,10.80
2023-04-09T11:07:37.003Z,9.60
2023-04-09T11:12:36.328Z,10.10
2023-04-09T11:17:36.645Z,8.20
2023-04-09T11:22:34.950Z,9.10
2023-04-09T11:27:36.312Z,9.40
2023-04-09T11:32:34.417Z,8.30
2023-04-09T11:37:33.683Z,10.60
2023-04-09T11:42:31.945Z,9.30
2023-04-09T11:47:31.212Z,9.20
2023-04-09T11:52:31.464Z,10.00
2023-04-09T11:57:30.792Z,9.40
2023-04-09T12:02:30.225Z,7.50
2023-04-09T12:07:29.387Z,6.80
2023-04-09T12:12:28.727Z,8.60
2023-04-09T12:17:27.840Z,7.50
2023-04-09T12:22:27.114Z,6.30
2023-04-09T12:27:26.409Z,7.30
2023-04-09T12:32:24.726Z,5.90
2023-04-09T12:37:24.001Z,7.10
2023-04-09T12:42:23.310Z,5.60
2023-04-09T12:47:22.625Z,6.60
2023-04-09T12:52:21.894Z,5.30
2023-04-09T12:57:23.166Z,5.10
2023-04-09T13:02:21.632Z,4.80
2023-04-09T13:07:19.612Z,5.60
2023-04-09T13:12:20.882Z,4.60
2023-04-09T13:17:18.210Z,4.40
2023-04-09T13:22:17.429Z,4.90
2023-04-09T13:27:18.793Z,5.00
2023-04-09T13:32:16.012Z,3.90
2023-04-09T13:37:15.272Z,5.20
2023-04-09T13:42:14.845Z,5.10
2023-04-09T13:47:13.887Z,3.90
2023-04-09T13:52:13.243Z,4.10
2023-04-09T13:57:13.508Z,5.30
2023-04-09T14:02:11.877Z,4.30
2023-04-09T14:07:11.026Z,4.00
2023-04-09T14:12:12.368Z,4.50
2023-04-09T14:17:11.668Z,3.30
2023-04-09T14:22:09.929Z,3.50
2023-04-09T14:27:09.194Z,4.30
2023-04-09T14:32:08.483Z,3.30
2023-04-09T14:37:06.747Z,2.90
2023-04-09T14:42:06.016Z,3.70
2023-04-09T14:47:05.391Z,3.00
2023-04-09T14:52:04.490Z,3.60
2023-04-09T14:57:04.806Z,3.10
2023-04-09T15:02:03.346Z,2.60
2023-04-09T15:07:02.474Z,2.80
2023-04-09T15:12:01.725Z,3.00
2023-04-09T15:17:00.007Z,3.70
2023-04-09T15:22:01.261Z,2.90
2023-04-09T15:26:59.536Z,2.60
2023-04-09T15:31:59.925Z,2.60
2023-04-09T15:36:59.047Z,3.10
2023-04-09T15:41:56.279Z,2.60
2023-04-09T15:46:56.584Z,2.10
2023-04-09T15:51:56.866Z,1.90
2023-04-09T15:56:56.129Z,2.00
2023-04-09T16:01:54.403Z,2.20
2023-04-09T16:06:53.661Z,1.60
2023-04-09T16:11:52.938Z,2.20
2023-04-09T16:16:53.205Z,2.90
2023-04-09T16:21:52.449Z,1.70
2023-04-09T16:26:50.705Z,1.50
2023-04-09T16:31:48.998Z,2.10
2023-04-09T16:36:50.255Z,1.70
2023-04-09T16:41:48.502Z,1.90
2023-04-09T16:46:47.783Z,2.00
2023-04-09T16:51:47.060Z,2.30
2023-04-09T16:56:47.379Z,11.90
2023-04-09T17:01:45.789Z,148.00
2023-04-09T17:06:44.945Z,87.40
2023-04-09T17:11:45.233Z,94.70
2023-04-09T17:16:43.573Z,181.50
2023-04-09T17:21:44.836Z,135.70
2023-04-09T17:26:42.134Z,86.40
2023-04-09T17:31:42.388Z,97.30
2023-04-09T17:36:39.669Z,47.20
2023-04-09T17:41:41.932Z,38.40
2023-04-09T17:46:39.293Z,87.80
2023-04-09T17:51:38.407Z,111.40
2023-04-09T17:56:38.659Z,110.80
2023-04-09T18:01:40.141Z,61.70
2023-04-09T18:06:37.060Z,58.80
2023-04-09T18:11:35.337Z,122.70
2023-04-09T18:16:38.581Z,114.70
2023-04-09T18:21:33.808Z,106.30
2023-04-09T18:26:33.089Z,96.90
2023-04-09T18:31:32.389Z,86.30
2023-04-09T18:36:31.650Z,102.50
2023-04-09T18:41:31.951Z,225.10
2023-04-09T18:46:30.307Z,182.00
2023-04-09T18:51:32.591Z,165.90
2023-04-09T18:56:28.637Z,154.40
2023-04-09T19:01:27.992Z,133.00
2023-04-09T19:06:27.562Z,124.70
2023-04-09T19:11:27.568Z,229.40
2023-04-09T19:16:26.810Z,278.90
2023-04-09T19:21:24.903Z,221.30
2023-04-09T19:26:25.202Z,199.80
2023-04-09T19:31:22.559Z,240.70
2023-04-09T19:36:22.671Z,333.80
2023-04-09T19:41:24.184Z,287.50
2023-04-09T19:46:21.100Z,241.70
2023-04-09T19:51:20.469Z,214.20
2023-04-09T19:56:19.531Z,193.60
2023-04-09T20:01:18.913Z,169.50
2023-04-09T20:06:18.014Z,317.90
2023-04-09T20:11:17.359Z,306.20
2023-04-09T20:16:16.431Z,266.10
2023-04-09T20:21:15.717Z,414.60
2023-04-09T20:26:15.006Z,369.70
2023-04-09T20:31:14.310Z,337.40
2023-04-09T20:36:13.572Z,278.60
2023-04-09T20:41:13.856Z,249.60
2023-04-09T20:46:12.188Z,220.50
2023-04-09T20:51:11.480Z,201.40
2023-04-09T20:56:11.771Z,248.60
2023-04-09T21:01:10.151Z,340.90
2023-04-09T21:06:09.305Z,300.60
2023-04-09T21:11:08.601Z,279.40
2023-04-09T21:16:07.874Z,245.00
2023-04-09T21:21:07.177Z,351.50
2023-04-09T21:26:06.456Z,365.60
2023-04-09T21:31:06.776Z,462.80
2023-04-09T21:36:05.104Z,475.90
2023-04-09T21:41:04.396Z,388.00
2023-04-09T21:46:05.706Z,357.90
2023-04-09T21:51:02.953Z,319.60
2023-04-09T21:56:04.944Z,280.10
2023-04-09T22:01:01.470Z,244.60
2023-04-09T22:06:00.607Z,241.20
2023-04-09T22:11:00.882Z,355.80
2023-04-09T22:15:59.177Z,318.10
2023-04-09T22:20:58.424Z,370.50
2023-04-09T22:25:58.693Z,368.80
2023-04-09T22:31:01.030Z,437.30
2023-04-09T22:35:56.268Z,398.80
2023-04-09T22:40:55.523Z,350.80
2023-04-09T22:45:55.782Z,383.00
2023-04-09T22:50:54.022Z,425.50
2023-04-09T22:55:52.277Z,363.50
2023-04-09T23:00:53.564Z,316.90
2023-04-09T23:05:51.942Z,318.70
2023-04-09T23:10:51.014Z,414.90
2023-04-09T23:15:50.329Z,181.90
2023-04-09T23:20:49.586Z,150.80
2023-04-09T23:25:49.825Z,142.40
2023-04-09T23:30:48.083Z,96.60
2023-04-09T23:35:47.333Z,90.90
2023-04-09T23:40:48.585Z,96.10
2023-04-09T23:45:47.831Z,75.70
2023-04-09T23:50:46.091Z,72.40
2023-04-09T23:55:45.386Z,79.50
